sensor_id;sensor_type;location;lat;lon;timestamp;P1;durP1;ratioP1;P2;durP2;ratioP2
12910;SDS011;6523;49.758;6.120;2022-12-07T00:00:54;15.80;;;10.00;;
12910;SDS011;6523;49.758;6.120;2022-12-07T00:03:20;15.60;;;9.47;;
12910;SDS011;6523;49.758;6.120;2022-12-07T00:05:46;15.93;;;9.33;;
12910;SDS011;6523;49.758;6.120;2022-12-07T00:08:12;14.00;;;9.47;;
12910;SDS011;6523;49.758;6.120;2022-12-07T00:10:37;14.83;;;9.33;;
12910;SDS011;6523;49.758;6.120;2022-12-07T00:13:03;11.90;;;8.57;;
12910;SDS011;6523;49.758;6.120;2022-12-07T00:15:28;15.77;;;9.30;;
12910;SDS011;6523;49.758;6.120;2022-12-07T00:17:54;14.30;;;9.27;;
12910;SDS011;6523;49.758;6.120;2022-12-07T00:20:19;13.90;;;9.00;;
12910;SDS011;6523;49.758;6.120;2022-12-07T00:22:45;14.00;;;9.40;;
12910;SDS011;6523;49.758;6.120;2022-12-07T00:25:10;11.70;;;8.37;;
12910;SDS011;6523;49.758;6.120;2022-12-07T00:27:36;15.20;;;8.97;;
12910;SDS011;6523;49.758;6.120;2022-12-07T00:30:01;11.50;;;8.77;;
12910;SDS011;6523;49.758;6.120;2022-12-07T00:32:27;14.67;;;9.70;;
12910;SDS011;6523;49.758;6.120;2022-12-07T00:34:53;13.73;;;8.93;;
12910;SDS011;6523;49.758;6.120;2022-12-07T00:37:18;15.70;;;9.57;;
12910;SDS011;6523;49.758;6.120;2022-12-07T00:39:45;13.40;;;8.87;;
12910;SDS011;6523;49.758;6.120;2022-12-07T00:42:11;13.83;;;8.87;;
12910;SDS011;6523;49.758;6.120;2022-12-07T00:44:36;12.63;;;9.40;;
12910;SDS011;6523;49.758;6.120;2022-12-07T00:47:02;15.73;;;9.40;;
12910;SDS011;6523;49.758;6.120;2022-12-07T00:49:28;15.70;;;9.77;;
12910;SDS011;6523;49.758;6.120;2022-12-07T00:51:53;14.73;;;9.60;;
12910;SDS011;6523;49.758;6.120;2022-12-07T00:54:19;16.37;;;9.20;;
12910;SDS011;6523;49.758;6.120;2022-12-07T00:56:44;13.30;;;9.20;;
12910;SDS011;6523;49.758;6.120;2022-12-07T00:59:11;13.37;;;9.07;;
12910;SDS011;6523;49.758;6.120;2022-12-07T01:01:39;13.57;;;8.10;;
12910;SDS011;6523;49.758;6.120;2022-12-07T01:04:05;15.27;;;9.30;;
12910;SDS011;6523;49.758;6.120;2022-12-07T01:06:31;15.53;;;9.07;;
12910;SDS011;6523;49.758;6.120;2022-12-07T01:08:57;15.67;;;8.97;;
12910;SDS011;6523;49.758;6.120;2022-12-07T01:11:24;19.77;;;10.07;;
12910;SDS011;6523;49.758;6.120;2022-12-07T01:13:53;14.80;;;9.03;;
12910;SDS011;6523;49.758;6.120;2022-12-07T01:16:20;18.30;;;10.50;;
12910;SDS011;6523;49.758;6.120;2022-12-07T01:18:47;21.67;;;10.57;;
12910;SDS011;6523;49.758;6.120;2022-12-07T01:21:16;19.20;;;10.63;;
12910;SDS011;6523;49.758;6.120;2022-12-07T01:23:45;22.23;;;11.30;;
12910;SDS011;6523;49.758;6.120;2022-12-07T01:26:12;21.10;;;11.40;;
12910;SDS011;6523;49.758;6.120;2022-12-07T01:28:40;23.20;;;13.40;;
12910;SDS011;6523;49.758;6.120;2022-12-07T01:33:33;26.83;;;13.63;;
12910;SDS011;6523;49.758;6.120;2022-12-07T01:36:02;26.17;;;13.03;;
12910;SDS011;6523;49.758;6.120;2022-12-07T01:38:41;23.70;;;13.13;;
12910;SDS011;6523;49.758;6.120;2022-12-07T01:41:07;22.33;;;12.57;;
12910;SDS011;6523;49.758;6.120;2022-12-07T01:43:33;25.00;;;12.87;;
12910;SDS011;6523;49.758;6.120;2022-12-07T01:45:59;29.10;;;15.80;;
12910;SDS011;6523;49.758;6.120;2022-12-07T01:48:27;26.43;;;13.83;;
12910;SDS011;6523;49.758;6.120;2022-12-07T01:51:00;26.03;;;14.60;;
12910;SDS011;6523;49.758;6.120;2022-12-07T01:53:29;27.80;;;15.03;;
12910;SDS011;6523;49.758;6.120;2022-12-07T01:55:56;31.50;;;15.50;;
12910;SDS011;6523;49.758;6.120;2022-12-07T01:58:24;30.97;;;15.70;;
12910;SDS011;6523;49.758;6.120;2022-12-07T02:00:50;24.93;;;14.23;;
12910;SDS011;6523;49.758;6.120;2022-12-07T02:05:44;28.97;;;15.27;;
12910;SDS011;6523;49.758;6.120;2022-12-07T02:08:12;26.97;;;15.40;;
12910;SDS011;6523;49.758;6.120;2022-12-07T02:10:39;27.47;;;14.30;;
12910;SDS011;6523;49.758;6.120;2022-12-07T02:13:06;26.53;;;13.47;;
12910;SDS011;6523;49.758;6.120;2022-12-07T02:21:11;26.30;;;13.07;;
12910;SDS011;6523;49.758;6.120;2022-12-07T02:26:57;26.60;;;13.70;;
12910;SDS011;6523;49.758;6.120;2022-12-07T02:31:53;23.03;;;12.17;;
12910;SDS011;6523;49.758;6.120;2022-12-07T02:37:10;26.53;;;13.57;;
12910;SDS011;6523;49.758;6.120;2022-12-07T02:39:55;23.03;;;13.47;;
12910;SDS011;6523;49.758;6.120;2022-12-07T02:42:33;24.37;;;12.97;;
12910;SDS011;6523;49.758;6.120;2022-12-07T02:45:07;21.77;;;12.80;;
12910;SDS011;6523;49.758;6.120;2022-12-07T02:47:35;23.27;;;13.13;;
12910;SDS011;6523;49.758;6.120;2022-12-07T02:50:03;20.13;;;11.53;;
12910;SDS011;6523;49.758;6.120;2022-12-07T02:52:30;20.23;;;11.23;;
12910;SDS011;6523;49.758;6.120;2022-12-07T02:54:56;20.87;;;12.17;;
12910;SDS011;6523;49.758;6.120;2022-12-07T03:00:19;19.50;;;11.83;;
12910;SDS011;6523;49.758;6.120;2022-12-07T03:05:41;19.17;;;11.80;;
12910;SDS011;6523;49.758;6.120;2022-12-07T03:08:21;20.13;;;11.37;;
12910;SDS011;6523;49.758;6.120;2022-12-07T03:11:07;18.23;;;11.47;;
12910;SDS011;6523;49.758;6.120;2022-12-07T03:16:25;18.50;;;10.50;;
12910;SDS011;6523;49.758;6.120;2022-12-07T03:18:58;17.47;;;10.13;;
12910;SDS011;6523;49.758;6.120;2022-12-07T03:21:29;17.70;;;10.20;;
12910;SDS011;6523;49.758;6.120;2022-12-07T03:23:58;16.57;;;10.73;;
12910;SDS011;6523;49.758;6.120;2022-12-07T03:26:30;19.20;;;11.07;;
12910;SDS011;6523;49.758;6.120;2022-12-07T03:29:00;18.03;;;10.67;;
12910;SDS011;6523;49.758;6.120;2022-12-07T03:31:33;19.27;;;11.23;;
12910;SDS011;6523;49.758;6.120;2022-12-07T03:34:10;18.43;;;10.63;;
12910;SDS011;6523;49.758;6.120;2022-12-07T03:36:52;16.60;;;9.37;;
12910;SDS011;6523;49.758;6.120;2022-12-07T03:41:56;17.73;;;10.30;;
12910;SDS011;6523;49.758;6.120;2022-12-07T03:44:23;18.27;;;10.20;;
12910;SDS011;6523;49.758;6.120;2022-12-07T03:57:13;19.43;;;10.90;;
12910;SDS011;6523;49.758;6.120;2022-12-07T03:59:39;15.70;;;10.20;;
12910;SDS011;6523;49.758;6.120;2022-12-07T04:02:07;18.40;;;10.87;;
12910;SDS011;6523;49.758;6.120;2022-12-07T04:04:32;16.80;;;11.17;;
12910;SDS011;6523;49.758;6.120;2022-12-07T04:06:59;22.97;;;11.60;;
12910;SDS011;6523;49.758;6.120;2022-12-07T04:09:25;19.53;;;11.13;;
12910;SDS011;6523;49.758;6.120;2022-12-07T04:11:50;17.90;;;10.40;;
12910;SDS011;6523;49.758;6.120;2022-12-07T04:14:16;21.30;;;11.97;;
12910;SDS011;6523;49.758;6.120;2022-12-07T04:16:45;21.77;;;11.00;;
12910;SDS011;6523;49.758;6.120;2022-12-07T04:19:15;18.60;;;11.53;;
12910;SDS011;6523;49.758;6.120;2022-12-07T04:21:42;18.43;;;11.03;;
12910;SDS011;6523;49.758;6.120;2022-12-07T04:24:08;17.50;;;11.27;;
12910;SDS011;6523;49.758;6.120;2022-12-07T04:26:34;16.73;;;10.90;;
12910;SDS011;6523;49.758;6.120;2022-12-07T04:28:59;19.20;;;11.03;;
12910;SDS011;6523;49.758;6.120;2022-12-07T04:31:25;16.93;;;10.00;;
12910;SDS011;6523;49.758;6.120;2022-12-07T04:33:51;21.43;;;10.47;;
12910;SDS011;6523;49.758;6.120;2022-12-07T04:36:16;20.37;;;10.70;;
12910;SDS011;6523;49.758;6.120;2022-12-07T04:38:42;17.17;;;10.07;;
12910;SDS011;6523;49.758;6.120;2022-12-07T04:41:08;18.70;;;10.53;;
12910;SDS011;6523;49.758;6.120;2022-12-07T04:43:34;17.37;;;10.43;;
12910;SDS011;6523;49.758;6.120;2022-12-07T04:46:00;19.93;;;11.43;;
12910;SDS011;6523;49.758;6.120;2022-12-07T04:48:26;18.40;;;10.57;;
12910;SDS011;6523;49.758;6.120;2022-12-07T04:50:52;18.63;;;11.30;;
12910;SDS011;6523;49.758;6.120;2022-12-07T04:53:18;19.37;;;10.67;;
12910;SDS011;6523;49.758;6.120;2022-12-07T04:55:44;19.07;;;11.03;;
12910;SDS011;6523;49.758;6.120;2022-12-07T04:58:10;19.97;;;11.53;;
12910;SDS011;6523;49.758;6.120;2022-12-07T05:00:37;18.77;;;11.27;;
12910;SDS011;6523;49.758;6.120;2022-12-07T05:03:03;20.20;;;11.40;;
12910;SDS011;6523;49.758;6.120;2022-12-07T05:05:28;20.43;;;11.27;;
12910;SDS011;6523;49.758;6.120;2022-12-07T05:07:54;21.77;;;11.70;;
12910;SDS011;6523;49.758;6.120;2022-12-07T05:10:20;20.03;;;11.77;;
12910;SDS011;6523;49.758;6.120;2022-12-07T05:12:45;21.40;;;11.80;;
12910;SDS011;6523;49.758;6.120;2022-12-07T05:15:11;24.67;;;13.20;;
12910;SDS011;6523;49.758;6.120;2022-12-07T05:17:38;22.57;;;12.87;;
12910;SDS011;6523;49.758;6.120;2022-12-07T05:20:04;20.90;;;11.57;;
12910;SDS011;6523;49.758;6.120;2022-12-07T05:22:30;21.67;;;12.33;;
12910;SDS011;6523;49.758;6.120;2022-12-07T05:24:55;21.07;;;12.10;;
12910;SDS011;6523;49.758;6.120;2022-12-07T05:27:21;23.97;;;12.50;;
12910;SDS011;6523;49.758;6.120;2022-12-07T05:29:47;23.27;;;12.47;;
12910;SDS011;6523;49.758;6.120;2022-12-07T05:32:14;23.33;;;12.13;;
12910;SDS011;6523;49.758;6.120;2022-12-07T05:34:40;23.20;;;12.27;;
12910;SDS011;6523;49.758;6.120;2022-12-07T05:37:06;21.57;;;11.87;;
12910;SDS011;6523;49.758;6.120;2022-12-07T05:39:31;23.77;;;12.43;;
12910;SDS011;6523;49.758;6.120;2022-12-07T05:41:57;22.27;;;12.47;;
12910;SDS011;6523;49.758;6.120;2022-12-07T05:44:38;21.23;;;12.30;;
12910;SDS011;6523;49.758;6.120;2022-12-07T05:47:04;22.87;;;11.87;;
12910;SDS011;6523;49.758;6.120;2022-12-07T05:49:30;21.93;;;12.37;;
12910;SDS011;6523;49.758;6.120;2022-12-07T05:51:55;24.43;;;12.07;;
12910;SDS011;6523;49.758;6.120;2022-12-07T05:54:21;19.97;;;11.50;;
12910;SDS011;6523;49.758;6.120;2022-12-07T05:56:47;22.93;;;13.07;;
12910;SDS011;6523;49.758;6.120;2022-12-07T05:59:12;22.47;;;11.73;;
12910;SDS011;6523;49.758;6.120;2022-12-07T06:02:02;22.37;;;11.80;;
12910;SDS011;6523;49.758;6.120;2022-12-07T06:04:32;23.17;;;11.60;;
12910;SDS011;6523;49.758;6.120;2022-12-07T06:07:01;21.20;;;11.60;;
12910;SDS011;6523;49.758;6.120;2022-12-07T06:09:27;22.00;;;11.80;;
12910;SDS011;6523;49.758;6.120;2022-12-07T06:11:53;21.60;;;12.27;;
12910;SDS011;6523;49.758;6.120;2022-12-07T06:14:38;23.93;;;12.73;;
12910;SDS011;6523;49.758;6.120;2022-12-07T06:17:04;25.80;;;12.23;;
12910;SDS011;6523;49.758;6.120;2022-12-07T06:19:30;21.17;;;12.87;;
12910;SDS011;6523;49.758;6.120;2022-12-07T06:21:56;23.43;;;13.03;;
12910;SDS011;6523;49.758;6.120;2022-12-07T06:24:22;24.30;;;12.07;;
12910;SDS011;6523;49.758;6.120;2022-12-07T06:26:47;19.77;;;10.87;;
12910;SDS011;6523;49.758;6.120;2022-12-07T06:29:13;20.27;;;10.97;;
12910;SDS011;6523;49.758;6.120;2022-12-07T06:31:39;23.40;;;12.03;;
12910;SDS011;6523;49.758;6.120;2022-12-07T06:34:06;21.63;;;11.73;;
12910;SDS011;6523;49.758;6.120;2022-12-07T06:36:34;21.90;;;11.97;;
12910;SDS011;6523;49.758;6.120;2022-12-07T06:39:00;21.23;;;11.20;;
12910;SDS011;6523;49.758;6.120;2022-12-07T06:41:26;22.67;;;11.10;;
12910;SDS011;6523;49.758;6.120;2022-12-07T06:43:51;23.80;;;12.27;;
12910;SDS011;6523;49.758;6.120;2022-12-07T06:46:17;23.60;;;13.17;;
12910;SDS011;6523;49.758;6.120;2022-12-07T06:48:43;24.20;;;12.13;;
12910;SDS011;6523;49.758;6.120;2022-12-07T06:51:08;21.97;;;11.50;;
12910;SDS011;6523;49.758;6.120;2022-12-07T06:53:34;21.33;;;12.10;;
12910;SDS011;6523;49.758;6.120;2022-12-07T06:56:01;21.73;;;12.20;;
12910;SDS011;6523;49.758;6.120;2022-12-07T06:58:27;22.57;;;11.90;;
12910;SDS011;6523;49.758;6.120;2022-12-07T07:00:52;19.07;;;10.67;;
12910;SDS011;6523;49.758;6.120;2022-12-07T07:03:18;21.87;;;11.27;;
12910;SDS011;6523;49.758;6.120;2022-12-07T07:05:43;24.10;;;11.77;;
12910;SDS011;6523;49.758;6.120;2022-12-07T07:08:09;18.97;;;10.80;;
12910;SDS011;6523;49.758;6.120;2022-12-07T07:10:36;20.47;;;11.83;;
12910;SDS011;6523;49.758;6.120;2022-12-07T07:13:02;22.10;;;12.17;;
12910;SDS011;6523;49.758;6.120;2022-12-07T07:15:28;20.60;;;11.10;;
12910;SDS011;6523;49.758;6.120;2022-12-07T07:17:53;21.67;;;11.83;;
12910;SDS011;6523;49.758;6.120;2022-12-07T07:20:19;21.87;;;11.60;;
12910;SDS011;6523;49.758;6.120;2022-12-07T07:22:45;23.47;;;12.60;;
12910;SDS011;6523;49.758;6.120;2022-12-07T07:25:11;24.50;;;12.40;;
12910;SDS011;6523;49.758;6.120;2022-12-07T07:27:36;19.07;;;11.27;;
12910;SDS011;6523;49.758;6.120;2022-12-07T07:30:02;22.10;;;12.33;;
12910;SDS011;6523;49.758;6.120;2022-12-07T07:32:28;23.17;;;11.20;;
12910;SDS011;6523;49.758;6.120;2022-12-07T07:34:54;20.73;;;11.17;;
12910;SDS011;6523;49.758;6.120;2022-12-07T07:37:19;24.13;;;12.07;;
12910;SDS011;6523;49.758;6.120;2022-12-07T07:39:45;20.93;;;11.50;;
12910;SDS011;6523;49.758;6.120;2022-12-07T07:42:11;23.70;;;11.57;;
12910;SDS011;6523;49.758;6.120;2022-12-07T07:44:36;25.63;;;12.27;;
12910;SDS011;6523;49.758;6.120;2022-12-07T07:47:02;20.83;;;11.53;;
12910;SDS011;6523;49.758;6.120;2022-12-07T07:49:28;21.43;;;11.50;;
12910;SDS011;6523;49.758;6.120;2022-12-07T07:51:54;22.33;;;12.00;;
12910;SDS011;6523;49.758;6.120;2022-12-07T07:54:19;18.40;;;10.30;;
12910;SDS011;6523;49.758;6.120;2022-12-07T07:56:45;23.03;;;11.60;;
12910;SDS011;6523;49.758;6.120;2022-12-07T07:59:10;22.20;;;11.50;;
12910;SDS011;6523;49.758;6.120;2022-12-07T08:01:36;20.80;;;11.40;;
12910;SDS011;6523;49.758;6.120;2022-12-07T08:04:01;21.13;;;10.73;;
12910;SDS011;6523;49.758;6.120;2022-12-07T08:06:27;22.33;;;11.07;;
12910;SDS011;6523;49.758;6.120;2022-12-07T08:08:53;19.40;;;9.90;;
12910;SDS011;6523;49.758;6.120;2022-12-07T08:11:18;21.93;;;11.63;;
12910;SDS011;6523;49.758;6.120;2022-12-07T08:13:47;22.93;;;11.50;;
12910;SDS011;6523;49.758;6.120;2022-12-07T08:16:12;19.30;;;10.83;;
12910;SDS011;6523;49.758;6.120;2022-12-07T08:18:40;21.77;;;11.73;;
12910;SDS011;6523;49.758;6.120;2022-12-07T08:21:07;18.10;;;11.03;;
12910;SDS011;6523;49.758;6.120;2022-12-07T08:23:35;20.10;;;11.13;;
12910;SDS011;6523;49.758;6.120;2022-12-07T08:26:01;21.63;;;11.77;;
12910;SDS011;6523;49.758;6.120;2022-12-07T08:28:35;18.33;;;11.13;;
12910;SDS011;6523;49.758;6.120;2022-12-07T08:31:05;20.70;;;11.20;;
12910;SDS011;6523;49.758;6.120;2022-12-07T08:33:38;20.83;;;11.93;;
12910;SDS011;6523;49.758;6.120;2022-12-07T08:36:05;20.97;;;11.20;;
12910;SDS011;6523;49.758;6.120;2022-12-07T08:38:34;21.50;;;11.47;;
12910;SDS011;6523;49.758;6.120;2022-12-07T08:41:00;18.00;;;10.60;;
12910;SDS011;6523;49.758;6.120;2022-12-07T08:43:25;17.33;;;9.57;;
12910;SDS011;6523;49.758;6.120;2022-12-07T08:45:53;18.47;;;10.20;;
12910;SDS011;6523;49.758;6.120;2022-12-07T08:48:36;18.83;;;10.23;;
12910;SDS011;6523;49.758;6.120;2022-12-07T08:51:09;19.00;;;10.63;;
12910;SDS011;6523;49.758;6.120;2022-12-07T08:53:37;15.70;;;9.83;;
12910;SDS011;6523;49.758;6.120;2022-12-07T08:56:04;18.20;;;10.30;;
12910;SDS011;6523;49.758;6.120;2022-12-07T08:58:31;17.53;;;10.57;;
12910;SDS011;6523;49.758;6.120;2022-12-07T09:00:57;16.70;;;9.77;;
12910;SDS011;6523;49.758;6.120;2022-12-07T09:03:23;19.53;;;11.13;;
12910;SDS011;6523;49.758;6.120;2022-12-07T09:05:49;17.93;;;10.10;;
12910;SDS011;6523;49.758;6.120;2022-12-07T09:08:14;18.23;;;10.10;;
12910;SDS011;6523;49.758;6.120;2022-12-07T09:10:40;14.07;;;8.70;;
12910;SDS011;6523;49.758;6.120;2022-12-07T09:13:06;16.67;;;9.60;;
12910;SDS011;6523;49.758;6.120;2022-12-07T09:15:32;14.57;;;9.37;;
12910;SDS011;6523;49.758;6.120;2022-12-07T09:17:58;13.20;;;8.40;;
12910;SDS011;6523;49.758;6.120;2022-12-07T09:20:23;12.67;;;7.57;;
12910;SDS011;6523;49.758;6.120;2022-12-07T09:22:49;12.67;;;7.67;;
12910;SDS011;6523;49.758;6.120;2022-12-07T09:25:15;15.23;;;7.77;;
12910;SDS011;6523;49.758;6.120;2022-12-07T09:27:41;12.30;;;7.10;;
12910;SDS011;6523;49.758;6.120;2022-12-07T09:30:06;13.80;;;7.30;;
12910;SDS011;6523;49.758;6.120;2022-12-07T09:32:33;10.80;;;6.30;;
12910;SDS011;6523;49.758;6.120;2022-12-07T09:34:58;12.10;;;7.10;;
12910;SDS011;6523;49.758;6.120;2022-12-07T09:37:24;10.07;;;6.40;;
12910;SDS011;6523;49.758;6.120;2022-12-07T09:39:49;12.33;;;6.73;;
12910;SDS011;6523;49.758;6.120;2022-12-07T09:42:37;10.90;;;6.60;;
12910;SDS011;6523;49.758;6.120;2022-12-07T09:45:05;9.60;;;6.77;;
12910;SDS011;6523;49.758;6.120;2022-12-07T09:47:33;11.27;;;6.63;;
12910;SDS011;6523;49.758;6.120;2022-12-07T09:50:03;11.80;;;7.10;;
12910;SDS011;6523;49.758;6.120;2022-12-07T09:52:32;12.03;;;6.10;;
12910;SDS011;6523;49.758;6.120;2022-12-07T09:54:58;13.67;;;7.33;;
12910;SDS011;6523;49.758;6.120;2022-12-07T09:57:31;11.83;;;6.17;;
12910;SDS011;6523;49.758;6.120;2022-12-07T10:00:15;7.27;;;4.93;;
12910;SDS011;6523;49.758;6.120;2022-12-07T10:02:43;9.13;;;5.67;;
12910;SDS011;6523;49.758;6.120;2022-12-07T10:05:16;7.10;;;4.70;;
12910;SDS011;6523;49.758;6.120;2022-12-07T10:07:47;8.80;;;5.30;;
12910;SDS011;6523;49.758;6.120;2022-12-07T10:10:13;10.00;;;5.53;;
12910;SDS011;6523;49.758;6.120;2022-12-07T10:12:54;10.40;;;5.73;;
12910;SDS011;6523;49.758;6.120;2022-12-07T10:15:20;9.83;;;5.63;;
12910;SDS011;6523;49.758;6.120;2022-12-07T10:17:49;10.60;;;6.13;;
12910;SDS011;6523;49.758;6.120;2022-12-07T10:20:26;9.77;;;6.67;;
12910;SDS011;6523;49.758;6.120;2022-12-07T10:25:32;8.07;;;5.30;;
12910;SDS011;6523;49.758;6.120;2022-12-07T10:28:21;9.47;;;5.40;;
12910;SDS011;6523;49.758;6.120;2022-12-07T10:31:31;8.30;;;5.80;;
12910;SDS011;6523;49.758;6.120;2022-12-07T10:33:58;9.67;;;5.80;;
12910;SDS011;6523;49.758;6.120;2022-12-07T10:39:04;9.17;;;5.83;;
12910;SDS011;6523;49.758;6.120;2022-12-07T10:41:53;10.23;;;5.90;;
12910;SDS011;6523;49.758;6.120;2022-12-07T10:44:21;9.90;;;5.57;;
12910;SDS011;6523;49.758;6.120;2022-12-07T10:46:51;9.27;;;5.50;;
12910;SDS011;6523;49.758;6.120;2022-12-07T10:49:51;8.47;;;5.90;;
12910;SDS011;6523;49.758;6.120;2022-12-07T10:58:23;8.53;;;5.77;;
12910;SDS011;6523;49.758;6.120;2022-12-07T11:01:29;8.10;;;5.20;;
12910;SDS011;6523;49.758;6.120;2022-12-07T11:04:04;9.63;;;5.07;;
12910;SDS011;6523;49.758;6.120;2022-12-07T11:06:48;8.43;;;4.80;;
12910;SDS011;6523;49.758;6.120;2022-12-07T11:17:14;6.97;;;4.97;;
12910;SDS011;6523;49.758;6.120;2022-12-07T11:27:51;7.40;;;4.13;;
12910;SDS011;6523;49.758;6.120;2022-12-07T11:30:31;7.00;;;4.47;;
12910;SDS011;6523;49.758;6.120;2022-12-07T11:33:51;6.23;;;4.27;;
12910;SDS011;6523;49.758;6.120;2022-12-07T11:36:04;5.93;;;3.83;;
12910;SDS011;6523;49.758;6.120;2022-12-07T11:38:49;6.30;;;3.93;;
12910;SDS011;6523;49.758;6.120;2022-12-07T11:41:28;5.10;;;3.73;;
12910;SDS011;6523;49.758;6.120;2022-12-07T11:44:06;5.20;;;3.80;;
12910;SDS011;6523;49.758;6.120;2022-12-07T11:49:11;7.17;;;4.63;;
12910;SDS011;6523;49.758;6.120;2022-12-07T11:51:57;8.27;;;4.73;;
12910;SDS011;6523;49.758;6.120;2022-12-07T11:54:28;7.97;;;4.47;;
12910;SDS011;6523;49.758;6.120;2022-12-07T11:57:03;6.77;;;5.00;;
12910;SDS011;6523;49.758;6.120;2022-12-07T11:59:42;5.70;;;4.70;;
12910;SDS011;6523;49.758;6.120;2022-12-07T12:02:59;5.13;;;3.43;;
12910;SDS011;6523;49.758;6.120;2022-12-07T12:05:26;5.87;;;3.27;;
12910;SDS011;6523;49.758;6.120;2022-12-07T12:19:23;4.70;;;2.57;;
12910;SDS011;6523;49.758;6.120;2022-12-07T12:22:18;4.30;;;2.63;;
12910;SDS011;6523;49.758;6.120;2022-12-07T12:24:48;4.13;;;2.60;;
12910;SDS011;6523;49.758;6.120;2022-12-07T12:27:23;5.40;;;3.10;;
12910;SDS011;6523;49.758;6.120;2022-12-07T12:29:59;3.87;;;2.50;;
12910;SDS011;6523;49.758;6.120;2022-12-07T12:32:39;3.67;;;2.40;;
12910;SDS011;6523;49.758;6.120;2022-12-07T12:35:27;3.70;;;1.90;;
12910;SDS011;6523;49.758;6.120;2022-12-07T12:38:20;4.27;;;3.10;;
12910;SDS011;6523;49.758;6.120;2022-12-07T12:40:50;3.93;;;2.37;;
12910;SDS011;6523;49.758;6.120;2022-12-07T12:51:45;2.83;;;2.40;;
12910;SDS011;6523;49.758;6.120;2022-12-07T12:54:14;5.33;;;2.77;;
12910;SDS011;6523;49.758;6.120;2022-12-07T12:56:44;2.80;;;2.60;;
12910;SDS011;6523;49.758;6.120;2022-12-07T13:01:47;4.53;;;2.70;;
12910;SDS011;6523;49.758;6.120;2022-12-07T13:04:24;5.40;;;2.80;;
12910;SDS011;6523;49.758;6.120;2022-12-07T13:06:59;4.93;;;2.90;;
12910;SDS011;6523;49.758;6.120;2022-12-07T13:09:28;5.47;;;3.23;;
12910;SDS011;6523;49.758;6.120;2022-12-07T13:12:12;4.80;;;3.40;;
12910;SDS011;6523;49.758;6.120;2022-12-07T13:14:41;3.50;;;3.17;;
12910;SDS011;6523;49.758;6.120;2022-12-07T13:17:08;5.23;;;3.30;;
12910;SDS011;6523;49.758;6.120;2022-12-07T13:19:54;5.37;;;3.03;;
12910;SDS011;6523;49.758;6.120;2022-12-07T13:25:26;5.43;;;3.23;;
12910;SDS011;6523;49.758;6.120;2022-12-07T13:28:32;3.57;;;3.00;;
12910;SDS011;6523;49.758;6.120;2022-12-07T13:33:27;5.67;;;2.87;;
12910;SDS011;6523;49.758;6.120;2022-12-07T13:35:54;4.20;;;2.90;;
12910;SDS011;6523;49.758;6.120;2022-12-07T13:38:28;6.03;;;3.30;;
12910;SDS011;6523;49.758;6.120;2022-12-07T13:46:19;4.87;;;3.43;;
12910;SDS011;6523;49.758;6.120;2022-12-07T13:48:51;4.97;;;3.00;;
12910;SDS011;6523;49.758;6.120;2022-12-07T13:51:19;5.10;;;3.93;;
12910;SDS011;6523;49.758;6.120;2022-12-07T13:53:47;7.63;;;3.87;;
12910;SDS011;6523;49.758;6.120;2022-12-07T13:56:15;4.80;;;3.67;;
12910;SDS011;6523;49.758;6.120;2022-12-07T13:58:41;4.80;;;2.97;;
12910;SDS011;6523;49.758;6.120;2022-12-07T14:01:08;3.83;;;3.13;;
12910;SDS011;6523;49.758;6.120;2022-12-07T14:03:35;3.33;;;2.73;;
12910;SDS011;6523;49.758;6.120;2022-12-07T14:08:41;6.20;;;4.50;;
12910;SDS011;6523;49.758;6.120;2022-12-07T14:11:09;6.47;;;3.87;;
12910;SDS011;6523;49.758;6.120;2022-12-07T14:16:25;4.63;;;2.77;;
12910;SDS011;6523;49.758;6.120;2022-12-07T14:18:52;4.87;;;3.30;;
12910;SDS011;6523;49.758;6.120;2022-12-07T14:21:20;10.47;;;9.20;;
12910;SDS011;6523;49.758;6.120;2022-12-07T14:26:32;10.43;;;5.10;;
12910;SDS011;6523;49.758;6.120;2022-12-07T14:29:18;15.70;;;11.30;;
12910;SDS011;6523;49.758;6.120;2022-12-07T14:31:43;6.30;;;3.17;;
12910;SDS011;6523;49.758;6.120;2022-12-07T14:34:11;5.77;;;2.80;;
12910;SDS011;6523;49.758;6.120;2022-12-07T14:36:37;39.10;;;25.57;;
12910;SDS011;6523;49.758;6.120;2022-12-07T14:39:03;14.80;;;6.43;;
12910;SDS011;6523;49.758;6.120;2022-12-07T14:41:28;27.63;;;15.90;;
12910;SDS011;6523;49.758;6.120;2022-12-07T14:44:13;23.53;;;18.20;;
12910;SDS011;6523;49.758;6.120;2022-12-07T14:46:39;8.17;;;6.63;;
12910;SDS011;6523;49.758;6.120;2022-12-07T14:49:04;4.33;;;3.57;;
12910;SDS011;6523;49.758;6.120;2022-12-07T14:51:30;8.13;;;4.53;;
12910;SDS011;6523;49.758;6.120;2022-12-07T14:53:56;10.03;;;4.47;;
12910;SDS011;6523;49.758;6.120;2022-12-07T14:56:22;6.67;;;3.83;;
12910;SDS011;6523;49.758;6.120;2022-12-07T14:58:48;6.90;;;3.57;;
12910;SDS011;6523;49.758;6.120;2022-12-07T15:01:14;5.33;;;3.43;;
12910;SDS011;6523;49.758;6.120;2022-12-07T15:03:39;6.37;;;3.80;;
12910;SDS011;6523;49.758;6.120;2022-12-07T15:06:05;7.37;;;3.30;;
12910;SDS011;6523;49.758;6.120;2022-12-07T15:08:32;8.63;;;4.60;;
12910;SDS011;6523;49.758;6.120;2022-12-07T15:10:58;9.73;;;6.17;;
12910;SDS011;6523;49.758;6.120;2022-12-07T15:13:24;7.90;;;5.20;;
12910;SDS011;6523;49.758;6.120;2022-12-07T15:16:12;6.03;;;4.00;;
12910;SDS011;6523;49.758;6.120;2022-12-07T15:18:41;7.23;;;3.70;;
12910;SDS011;6523;49.758;6.120;2022-12-07T15:21:10;10.23;;;5.00;;
12910;SDS011;6523;49.758;6.120;2022-12-07T15:23:39;9.20;;;4.47;;
12910;SDS011;6523;49.758;6.120;2022-12-07T15:26:04;6.80;;;3.70;;
12910;SDS011;6523;49.758;6.120;2022-12-07T15:28:30;7.60;;;4.30;;
12910;SDS011;6523;49.758;6.120;2022-12-07T15:30:55;7.67;;;3.80;;
12910;SDS011;6523;49.758;6.120;2022-12-07T15:33:21;5.63;;;3.60;;
12910;SDS011;6523;49.758;6.120;2022-12-07T15:35:46;5.37;;;3.53;;
12910;SDS011;6523;49.758;6.120;2022-12-07T15:38:12;7.07;;;4.17;;
12910;SDS011;6523;49.758;6.120;2022-12-07T15:40:38;6.07;;;3.87;;
12910;SDS011;6523;49.758;6.120;2022-12-07T15:43:03;5.43;;;2.97;;
12910;SDS011;6523;49.758;6.120;2022-12-07T15:45:30;5.97;;;2.80;;
12910;SDS011;6523;49.758;6.120;2022-12-07T15:47:55;4.70;;;3.10;;
12910;SDS011;6523;49.758;6.120;2022-12-07T15:50:21;3.43;;;3.07;;
12910;SDS011;6523;49.758;6.120;2022-12-07T15:52:47;5.17;;;3.27;;
12910;SDS011;6523;49.758;6.120;2022-12-07T15:55:13;7.60;;;2.63;;
12910;SDS011;6523;49.758;6.120;2022-12-07T15:57:39;2.73;;;2.37;;
12910;SDS011;6523;49.758;6.120;2022-12-07T16:00:06;5.17;;;3.10;;
12910;SDS011;6523;49.758;6.120;2022-12-07T16:02:36;3.70;;;2.20;;
12910;SDS011;6523;49.758;6.120;2022-12-07T16:05:02;5.67;;;2.60;;
12910;SDS011;6523;49.758;6.120;2022-12-07T16:07:28;5.47;;;3.07;;
12910;SDS011;6523;49.758;6.120;2022-12-07T16:09:54;7.07;;;3.50;;
12910;SDS011;6523;49.758;6.120;2022-12-07T16:12:19;4.60;;;3.00;;
12910;SDS011;6523;49.758;6.120;2022-12-07T16:14:45;4.60;;;3.10;;
12910;SDS011;6523;49.758;6.120;2022-12-07T16:17:10;3.80;;;2.80;;
12910;SDS011;6523;49.758;6.120;2022-12-07T16:19:36;4.97;;;3.40;;
12910;SDS011;6523;49.758;6.120;2022-12-07T16:22:03;5.27;;;3.13;;
12910;SDS011;6523;49.758;6.120;2022-12-07T16:24:29;5.23;;;2.90;;
12910;SDS011;6523;49.758;6.120;2022-12-07T16:26:55;4.63;;;2.97;;
12910;SDS011;6523;49.758;6.120;2022-12-07T16:29:21;4.73;;;2.90;;
12910;SDS011;6523;49.758;6.120;2022-12-07T16:31:48;4.17;;;2.73;;
12910;SDS011;6523;49.758;6.120;2022-12-07T16:34:14;6.73;;;3.13;;
12910;SDS011;6523;49.758;6.120;2022-12-07T16:36:40;5.27;;;3.00;;
12910;SDS011;6523;49.758;6.120;2022-12-07T16:39:06;5.70;;;2.93;;
12910;SDS011;6523;49.758;6.120;2022-12-07T16:41:31;5.60;;;2.80;;
12910;SDS011;6523;49.758;6.120;2022-12-07T16:43:59;4.67;;;2.73;;
12910;SDS011;6523;49.758;6.120;2022-12-07T16:46:32;4.20;;;2.63;;
12910;SDS011;6523;49.758;6.120;2022-12-07T16:48:58;4.07;;;3.13;;